sensor_id;sensor_type;location;lat;lon;timestamp;pressure;altitude;pressure_sealevel;temperature;humidity
67517;BME280;68821;59.134;37.894;2023-04-26T00:01:03;99254.88;;;11.76;44.76
67517;BME280;68821;59.134;37.894;2023-04-26T00:03:30;99248.00;;;11.77;43.89
67517;BME280;68821;59.134;37.894;2023-04-26T00:06:01;99244.56;;;11.78;44.40
67517;BME280;68821;59.134;37.894;2023-04-26T00:08:30;99242.00;;;11.76;43.42
67517;BME280;68821;59.134;37.894;2023-04-26T00:10:56;99238.56;;;11.77;43.95
67517;BME280;68821;59.134;37.894;2023-04-26T00:13:23;99242.84;;;11.77;43.97
67517;BME280;68821;59.134;37.894;2023-04-26T00:15:49;99233.44;;;11.76;44.93
67517;BME280;68821;59.134;37.894;2023-04-26T00:18:15;99237.72;;;11.75;44.75
67517;BME280;68821;59.134;37.894;2023-04-26T00:20:42;99228.28;;;11.74;45.10
67517;BME280;68821;59.134;37.894;2023-04-26T00:23:09;99236.84;;;11.78;44.91
67517;BME280;68821;59.134;37.894;2023-04-26T00:25:36;99228.25;;;11.80;45.40
67517;BME280;68821;59.134;37.894;2023-04-26T00:28:03;99229.97;;;11.80;45.03
67517;BME280;68821;59.134;37.894;2023-04-26T00:30:29;99216.25;;;11.79;45.35
67517;BME280;68821;59.134;37.894;2023-04-26T00:32:55;99222.22;;;11.83;45.69
67517;BME280;68821;59.134;37.894;2023-04-26T00:35:22;99219.63;;;11.87;45.56
67517;BME280;68821;59.134;37.894;2023-04-26T00:37:48;99202.44;;;11.86;45.66
67517;BME280;68821;59.134;37.894;2023-04-26T00:40:14;99206.72;;;11.94;46.28
67517;BME280;68821;59.134;37.894;2023-04-26T00:42:42;99210.13;;;11.97;46.03
67517;BME280;68821;59.134;37.894;2023-04-26T00:45:08;99211.84;;;12.00;46.21
67517;BME280;68821;59.134;37.894;2023-04-26T00:47:34;99210.94;;;12.04;46.14
67517;BME280;68821;59.134;37.894;2023-04-26T00:50:01;99207.47;;;12.06;45.79
67517;BME280;68821;59.134;37.894;2023-04-26T00:52:29;99198.91;;;12.03;45.71
67517;BME280;68821;59.134;37.894;2023-04-26T00:54:56;99199.81;;;12.02;45.95
67517;BME280;68821;59.134;37.894;2023-04-26T00:57:22;99204.97;;;11.99;46.46
67517;BME280;68821;59.134;37.894;2023-04-26T00:59:49;99200.69;;;11.98;46.42
67517;BME280;68821;59.134;37.894;2023-04-26T01:02:15;99200.75;;;11.92;46.42
67517;BME280;68821;59.134;37.894;2023-04-26T01:04:42;99202.50;;;11.82;45.99
67517;BME280;68821;59.134;37.894;2023-04-26T01:07:10;99199.13;;;11.74;46.44
67517;BME280;68821;59.134;37.894;2023-04-26T01:09:36;99200.88;;;11.64;46.35
67517;BME280;68821;59.134;37.894;2023-04-26T01:12:03;99198.38;;;11.52;46.13
67517;BME280;68821;59.134;37.894;2023-04-26T01:14:31;99196.72;;;11.41;46.00
67517;BME280;68821;59.134;37.894;2023-04-26T01:16:59;99196.78;;;11.29;46.52
67517;BME280;68821;59.134;37.894;2023-04-26T01:19:25;99200.28;;;11.19;46.94
67517;BME280;68821;59.134;37.894;2023-04-26T01:21:51;99195.19;;;11.08;46.78
67517;BME280;68821;59.134;37.894;2023-04-26T01:24:19;99180.66;;;10.95;46.84
67517;BME280;68821;59.134;37.894;2023-04-26T01:26:46;99184.97;;;10.88;47.02
67517;BME280;68821;59.134;37.894;2023-04-26T01:29:18;99184.13;;;10.86;47.04
67517;BME280;68821;59.134;37.894;2023-04-26T01:31:45;99183.28;;;10.78;46.53
67517;BME280;68821;59.134;37.894;2023-04-26T01:34:12;99174.75;;;10.70;47.13
67517;BME280;68821;59.134;37.894;2023-04-26T01:36:39;99184.19;;;10.66;47.20
67517;BME280;68821;59.134;37.894;2023-04-26T01:39:05;99170.50;;;10.58;47.49
67517;BME280;68821;59.134;37.894;2023-04-26T01:41:34;99182.50;;;10.57;47.84
67517;BME280;68821;59.134;37.894;2023-04-26T01:44:00;99181.66;;;10.51;47.60
67517;BME280;68821;59.134;37.894;2023-04-26T01:46:26;99179.09;;;10.51;48.01
67517;BME280;68821;59.134;37.894;2023-04-26T01:48:53;99178.25;;;10.47;47.69
67517;BME280;68821;59.134;37.894;2023-04-26T01:51:19;99172.25;;;10.39;47.29
67517;BME280;68821;59.134;37.894;2023-04-26T01:53:46;99176.56;;;10.40;47.90
67517;BME280;68821;59.134;37.894;2023-04-26T01:56:12;99175.72;;;10.38;48.26
67517;BME280;68821;59.134;37.894;2023-04-26T01:58:38;99172.25;;;10.31;48.65
67517;BME280;68821;59.134;37.894;2023-04-26T02:01:07;99168.84;;;10.27;48.58
67517;BME280;68821;59.134;37.894;2023-04-26T02:03:34;99174.81;;;10.28;48.25
67517;BME280;68821;59.134;37.894;2023-04-26T02:06:01;99171.41;;;10.26;48.79
67517;BME280;68821;59.134;37.894;2023-04-26T02:08:28;99167.13;;;10.23;48.24
67517;BME280;68821;59.134;37.894;2023-04-26T02:10:55;99162.84;;;10.19;48.70
67517;BME280;68821;59.134;37.894;2023-04-26T02:13:21;99163.69;;;10.20;48.57
67517;BME280;68821;59.134;37.894;2023-04-26T02:15:48;99167.09;;;10.25;48.24
67517;BME280;68821;59.134;37.894;2023-04-26T02:18:14;99159.41;;;10.26;48.21
67517;BME280;68821;59.134;37.894;2023-04-26T02:20:45;99156.84;;;10.28;49.02
67517;BME280;68821;59.134;37.894;2023-04-26T02:23:11;99150.88;;;10.31;49.09
67517;BME280;68821;59.134;37.894;2023-04-26T02:25:38;99148.28;;;10.37;48.78
67517;BME280;68821;59.134;37.894;2023-04-26T02:28:05;99145.69;;;10.43;48.49
67517;BME280;68821;59.134;37.894;2023-04-26T02:30:31;99142.25;;;10.45;48.27
67517;BME280;68821;59.134;37.894;2023-04-26T02:32:57;99132.00;;;10.45;48.56
67517;BME280;68821;59.134;37.894;2023-04-26T02:35:24;99143.09;;;10.57;48.63
67517;BME280;68821;59.134;37.894;2023-04-26T02:37:50;99136.22;;;10.63;47.99
67517;BME280;68821;59.134;37.894;2023-04-26T02:40:20;99137.91;;;10.69;48.30
67517;BME280;68821;59.134;37.894;2023-04-26T02:42:47;99135.31;;;10.74;48.48
67517;BME280;68821;59.134;37.894;2023-04-26T02:45:13;99132.72;;;10.78;48.20
67517;BME280;68821;59.134;37.894;2023-04-26T02:47:39;99129.28;;;10.82;48.03
67517;BME280;68821;59.134;37.894;2023-04-26T02:50:07;99114.72;;;10.84;48.44
67517;BME280;68821;59.134;37.894;2023-04-26T02:52:35;99122.38;;;10.92;48.05
67517;BME280;68821;59.134;37.894;2023-04-26T02:55:05;99114.69;;;10.94;48.27
67517;BME280;68821;59.134;37.894;2023-04-26T02:57:32;99119.78;;;11.01;47.95
67517;BME280;68821;59.134;37.894;2023-04-26T02:59:58;99112.91;;;11.03;48.66
67517;BME280;68821;59.134;37.894;2023-04-26T03:02:25;99107.75;;;11.10;47.87
67517;BME280;68821;59.134;37.894;2023-04-26T03:04:51;99111.09;;;11.21;48.52
67517;BME280;68821;59.134;37.894;2023-04-26T03:07:17;99106.75;;;11.31;48.39
67517;BME280;68821;59.134;37.894;2023-04-26T03:09:44;99103.25;;;11.41;48.17
67517;BME280;68821;59.134;37.894;2023-04-26T03:12:10;99102.31;;;11.50;48.00
67517;BME280;68821;59.134;37.894;2023-04-26T03:14:37;99102.22;;;11.60;47.81
67517;BME280;68821;59.134;37.894;2023-04-26T03:17:03;99094.44;;;11.66;47.55
67517;BME280;68821;59.134;37.894;2023-04-26T03:19:29;99092.72;;;11.68;47.66
67517;BME280;68821;59.134;37.894;2023-04-26T03:21:56;99103.81;;;11.77;46.99
67517;BME280;68821;59.134;37.894;2023-04-26T03:24:22;99096.91;;;11.80;47.56
67517;BME280;68821;59.134;37.894;2023-04-26T03:26:48;99092.59;;;11.84;47.01
67517;BME280;68821;59.134;37.894;2023-04-26T03:29:16;99090.84;;;11.89;47.03
67517;BME280;68821;59.134;37.894;2023-04-26T03:31:42;99084.81;;;11.95;46.88
67517;BME280;68821;59.134;37.894;2023-04-26T03:34:09;99091.63;;;12.02;47.06
67517;BME280;68821;59.134;37.894;2023-04-26T03:36:35;99093.28;;;12.06;47.13
67517;BME280;68821;59.134;37.894;2023-04-26T03:39:01;99081.22;;;12.10;47.08
67517;BME280;68821;59.134;37.894;2023-04-26T03:41:28;99076.88;;;12.16;47.27
67517;BME280;68821;59.134;37.894;2023-04-26T03:43:55;99074.13;;;12.30;47.11
67517;BME280;68821;59.134;37.894;2023-04-26T03:46:21;99068.00;;;12.40;47.16
67517;BME280;68821;59.134;37.894;2023-04-26T03:48:47;99072.16;;;12.52;47.03
67517;BME280;68821;59.134;37.894;2023-04-26T03:51:14;99067.69;;;12.66;46.96
67517;BME280;68821;59.134;37.894;2023-04-26T03:53:40;99073.56;;;12.78;46.89
67517;BME280;68821;59.134;37.894;2023-04-26T03:56:06;99070.81;;;12.90;46.72
67517;BME280;68821;59.134;37.894;2023-04-26T03:58:33;99055.25;;;12.96;46.74
67517;BME280;68821;59.134;37.894;2023-04-26T04:00:59;99062.94;;;13.01;46.62
67517;BME280;68821;59.134;37.894;2023-04-26T04:03:26;99065.34;;;13.12;46.52
67517;BME280;68821;59.134;37.894;2023-04-26T04:05:54;99053.19;;;13.20;46.71
67517;BME280;68821;59.134;37.894;2023-04-26T04:08:21;99058.22;;;13.27;46.66
67517;BME280;68821;59.134;37.894;2023-04-26T04:10:47;99051.28;;;13.33;46.51
67517;BME280;68821;59.134;37.894;2023-04-26T04:13:13;99057.13;;;13.45;46.62
67517;BME280;68821;59.134;37.894;2023-04-26T04:15:39;99059.53;;;13.56;46.60
67517;BME280;68821;59.134;37.894;2023-04-26T04:18:06;99052.59;;;13.60;46.62
67517;BME280;68821;59.134;37.894;2023-04-26T04:20:32;99051.59;;;13.65;46.56
67517;BME280;68821;59.134;37.894;2023-04-26T04:22:58;99050.69;;;13.69;46.23
67517;BME280;68821;59.134;37.894;2023-04-26T04:25:26;99040.28;;;13.74;46.90
67517;BME280;68821;59.134;37.894;2023-04-26T04:27:54;99040.00;;;13.89;46.47
67517;BME280;68821;59.134;37.894;2023-04-26T04:30:20;99040.66;;;14.01;46.92
67517;BME280;68821;59.134;37.894;2023-04-26T04:32:50;99037.91;;;14.10;46.61
67517;BME280;68821;59.134;37.894;2023-04-26T04:35:16;99041.97;;;14.23;46.67
67517;BME280;68821;59.134;37.894;2023-04-26T04:37:43;99034.00;;;14.33;46.43
67517;BME280;68821;59.134;37.894;2023-04-26T04:40:10;99011.66;;;14.30;46.56
67517;BME280;68821;59.134;37.894;2023-04-26T04:42:38;99027.66;;;14.47;47.11
67517;BME280;68821;59.134;37.894;2023-04-26T04:45:05;99033.59;;;14.53;47.48
67517;BME280;68821;59.134;37.894;2023-04-26T04:47:31;99025.91;;;14.49;48.29
67517;BME280;68821;59.134;37.894;2023-04-26T04:49:58;99014.84;;;14.43;48.22
67517;BME280;68821;59.134;37.894;2023-04-26T04:52:25;99015.75;;;14.42;48.68
67517;BME280;68821;59.134;37.894;2023-04-26T04:54:51;99020.03;;;14.41;49.05
67517;BME280;68821;59.134;37.894;2023-04-26T04:57:17;99012.34;;;14.38;49.05
67517;BME280;68821;59.134;37.894;2023-04-26T04:59:44;99018.47;;;14.34;49.48
67517;BME280;68821;59.134;37.894;2023-04-26T05:02:10;99014.13;;;14.36;50.43
67517;BME280;68821;59.134;37.894;2023-04-26T05:04:36;99011.69;;;14.28;50.03
67517;BME280;68821;59.134;37.894;2023-04-26T05:07:03;99014.28;;;14.27;50.58
67517;BME280;68821;59.134;37.894;2023-04-26T05:09:29;99007.53;;;14.21;50.69
67517;BME280;68821;59.134;37.894;2023-04-26T05:11:55;98986.22;;;14.08;50.96
67517;BME280;68821;59.134;37.894;2023-04-26T05:14:21;98997.28;;;14.17;51.81
67517;BME280;68821;59.134;37.894;2023-04-26T05:16:48;99000.84;;;14.11;51.92
67517;BME280;68821;59.134;37.894;2023-04-26T05:19:14;98994.81;;;14.11;51.71
67517;BME280;68821;59.134;37.894;2023-04-26T05:21:40;98997.25;;;14.18;52.05
67517;BME280;68821;59.134;37.894;2023-04-26T05:24:07;98981.00;;;14.12;52.76
67517;BME280;68821;59.134;37.894;2023-04-26T05:26:34;98991.28;;;14.15;52.67
67517;BME280;68821;59.134;37.894;2023-04-26T05:29:00;98984.53;;;14.09;52.84
67517;BME280;68821;59.134;37.894;2023-04-26T05:31:26;98978.56;;;14.04;52.94
67517;BME280;68821;59.134;37.894;2023-04-26T05:33:53;98984.59;;;14.04;53.66
67517;BME280;68821;59.134;37.894;2023-04-26T05:36:19;98980.31;;;14.03;53.56
67517;BME280;68821;59.134;37.894;2023-04-26T05:38:46;98982.94;;;14.00;54.36
67517;BME280;68821;59.134;37.894;2023-04-26T05:41:13;98977.94;;;13.93;54.42
67517;BME280;68821;59.134;37.894;2023-04-26T05:43:39;98983.97;;;13.92;54.68
67517;BME280;68821;59.134;37.894;2023-04-26T05:46:06;98970.25;;;13.89;55.13
67517;BME280;68821;59.134;37.894;2023-04-26T05:48:32;98976.94;;;14.00;55.09
67517;BME280;68821;59.134;37.894;2023-04-26T05:50:58;98978.47;;;14.10;55.57
67517;BME280;68821;59.134;37.894;2023-04-26T05:53:24;98975.59;;;14.24;55.52
67517;BME280;68821;59.134;37.894;2023-04-26T05:55:50;98967.75;;;14.28;55.55
67517;BME280;68821;59.134;37.894;2023-04-26T05:58:16;98962.38;;;14.38;55.94
67517;BME280;68821;59.134;37.894;2023-04-26T06:00:42;98963.91;;;14.46;56.07
67517;BME280;68821;59.134;37.894;2023-04-26T06:03:09;98967.09;;;14.59;55.55
67517;BME280;68821;59.134;37.894;2023-04-26T06:05:36;98963.47;;;14.68;55.62
67517;BME280;68821;59.134;37.894;2023-04-26T06:08:05;98955.63;;;14.73;55.64
67517;BME280;68821;59.134;37.894;2023-04-26T06:10:34;98961.66;;;14.72;55.97
67517;BME280;68821;59.134;37.894;2023-04-26T06:13:01;98957.41;;;14.69;56.02
67517;BME280;68821;59.134;37.894;2023-04-26T06:15:27;98962.44;;;14.75;56.05
67517;BME280;68821;59.134;37.894;2023-04-26T06:17:53;98966.56;;;14.82;56.28
67517;BME280;68821;59.134;37.894;2023-04-26T06:20:19;98964.66;;;14.91;56.02
67517;BME280;68821;59.134;37.894;2023-04-26T06:22:45;98957.53;;;15.00;56.00
67517;BME280;68821;59.134;37.894;2023-04-26T06:25:11;98950.41;;;15.10;56.02
67517;BME280;68821;59.134;37.894;2023-04-26T06:27:37;98950.16;;;15.19;55.90
67517;BME280;68821;59.134;37.894;2023-04-26T06:30:05;98945.78;;;15.21;55.55
67517;BME280;68821;59.134;37.894;2023-04-26T06:32:32;98948.16;;;15.31;55.74
67517;BME280;68821;59.134;37.894;2023-04-26T06:34:58;98952.34;;;15.36;56.17
67517;BME280;68821;59.134;37.894;2023-04-26T06:37:25;98937.63;;;15.38;55.72
67517;BME280;68821;59.134;37.894;2023-04-26T06:39:50;98937.63;;;15.38;55.74
67517;BME280;68821;59.134;37.894;2023-04-26T06:42:17;98939.44;;;15.35;56.12
67517;BME280;68821;59.134;37.894;2023-04-26T06:44:43;98945.44;;;15.37;56.34
67517;BME280;68821;59.134;37.894;2023-04-26T06:47:09;98931.66;;;15.35;56.65
67517;BME280;68821;59.134;37.894;2023-04-26T06:49:35;98941.03;;;15.40;56.59
67517;BME280;68821;59.134;37.894;2023-04-26T06:52:02;98941.75;;;15.45;56.92
67517;BME280;68821;59.134;37.894;2023-04-26T06:54:28;98937.19;;;15.54;57.06
67517;BME280;68821;59.134;37.894;2023-04-26T06:56:55;98932.03;;;15.54;56.04
67517;BME280;68821;59.134;37.894;2023-04-26T06:59:21;98939.97;;;15.47;56.31
67517;BME280;68821;59.134;37.894;2023-04-26T07:01:47;98928.78;;;15.45;56.68
67517;BME280;68821;59.134;37.894;2023-04-26T07:04:13;98932.22;;;15.46;57.01
67517;BME280;68821;59.134;37.894;2023-04-26T07:06:39;98924.53;;;15.43;56.77
67517;BME280;68821;59.134;37.894;2023-04-26T07:09:06;98933.28;;;15.39;57.42
67517;BME280;68821;59.134;37.894;2023-04-26T07:11:33;98927.47;;;15.31;57.80
67517;BME280;68821;59.134;37.894;2023-04-26T07:13:59;98923.16;;;15.29;57.97
67517;BME280;68821;59.134;37.894;2023-04-26T07:16:25;98923.13;;;15.31;58.46
67517;BME280;68821;59.134;37.894;2023-04-26T07:18:51;98927.44;;;15.32;58.51
67517;BME280;68821;59.134;37.894;2023-04-26T07:21:18;98921.19;;;15.39;58.63
67517;BME280;68821;59.134;37.894;2023-04-26T07:23:44;98915.06;;;15.42;58.39
67517;BME280;68821;59.134;37.894;2023-04-26T07:26:10;98921.81;;;15.47;58.39
67517;BME280;68821;59.134;37.894;2023-04-26T07:28:36;98920.31;;;15.40;58.38
67517;BME280;68821;59.134;37.894;2023-04-26T07:31:03;98914.34;;;15.37;59.11
67517;BME280;68821;59.134;37.894;2023-04-26T07:33:29;98916.97;;;15.35;58.96
67517;BME280;68821;59.134;37.894;2023-04-26T07:35:57;98921.50;;;15.27;59.20
67517;BME280;68821;59.134;37.894;2023-04-26T07:38:26;98910.44;;;15.22;59.32
67517;BME280;68821;59.134;37.894;2023-04-26T07:40:54;98911.00;;;15.32;59.44
67517;BME280;68821;59.134;37.894;2023-04-26T07:43:20;98913.44;;;15.38;59.54
67517;BME280;68821;59.134;37.894;2023-04-26T07:45:46;98906.41;;;15.43;59.70
67517;BME280;68821;59.134;37.894;2023-04-26T07:48:12;98903.53;;;15.54;59.35
67517;BME280;68821;59.134;37.894;2023-04-26T07:50:39;98899.09;;;15.59;59.28
67517;BME280;68821;59.134;37.894;2023-04-26T07:53:05;98903.06;;;15.70;59.74
67517;BME280;68821;59.134;37.894;2023-04-26T07:55:31;98894.41;;;15.72;59.41
67517;BME280;68821;59.134;37.894;2023-04-26T07:57:57;98884.22;;;15.65;59.25
67517;BME280;68821;59.134;37.894;2023-04-26T08:00:24;98894.72;;;15.61;59.98
67517;BME280;68821;59.134;37.894;2023-04-26T08:02:50;98881.22;;;15.48;59.86
67517;BME280;68821;59.134;37.894;2023-04-26T08:05:16;98892.47;;;15.48;59.84
67517;BME280;68821;59.134;37.894;2023-04-26T08:07:43;98882.16;;;15.45;60.12
67517;BME280;68821;59.134;37.894;2023-04-26T08:10:09;98886.53;;;15.43;60.24
67517;BME280;68821;59.134;37.894;2023-04-26T08:12:36;98884.63;;;15.50;61.04
67517;BME280;68821;59.134;37.894;2023-04-26T08:15:04;98864.50;;;15.60;60.95
67517;BME280;68821;59.134;37.894;2023-04-26T08:17:31;98876.03;;;15.81;60.59
67517;BME280;68821;59.134;37.894;2023-04-26T08:19:57;98871.44;;;15.91;60.74
67517;BME280;68821;59.134;37.894;2023-04-26T08:22:24;98864.47;;;15.93;60.23
67517;BME280;68821;59.134;37.894;2023-04-26T08:24:54;98866.19;;;15.94;60.57
67517;BME280;68821;59.134;37.894;2023-04-26T08:27:21;98861.09;;;15.89;61.11
67517;BME280;68821;59.134;37.894;2023-04-26T08:29:47;98867.81;;;15.96;61.18
67517;BME280;68821;59.134;37.894;2023-04-26T08:32:13;98867.69;;;16.01;61.17
67517;BME280;68821;59.134;37.894;2023-04-26T08:34:40;98865.09;;;16.01;60.78
67517;BME280;68821;59.134;37.894;2023-04-26T08:37:06;98859.94;;;15.99;61.10
67517;BME280;68821;59.134;37.894;2023-04-26T08:39:33;98865.94;;;16.01;61.25
67517;BME280;68821;59.134;37.894;2023-04-26T08:42:05;98866.81;;;16.02;60.62
67517;BME280;68821;59.134;37.894;2023-04-26T08:44:34;98863.47;;;15.97;60.74
67517;BME280;68821;59.134;37.894;2023-04-26T08:49:41;98854.66;;;16.04;60.99
67517;BME280;68821;59.134;37.894;2023-04-26T08:52:11;98851.00;;;16.09;60.58
67517;BME280;68821;59.134;37.894;2023-04-26T08:54:38;98850.81;;;16.16;60.57
67517;BME280;68821;59.134;37.894;2023-04-26T08:57:06;98847.09;;;16.24;60.80
67517;BME280;68821;59.134;37.894;2023-04-26T08:59:36;98851.91;;;16.37;60.68
67517;BME280;68821;59.134;37.894;2023-04-26T09:02:04;98851.59;;;16.46;60.96
67517;BME280;68821;59.134;37.894;2023-04-26T09:04:31;98850.47;;;16.55;60.29
67517;BME280;68821;59.134;37.894;2023-04-26T09:07:02;98849.38;;;16.62;60.19
67517;BME280;68821;59.134;37.894;2023-04-26T09:09:41;98833.09;;;16.57;60.05
67517;BME280;68821;59.134;37.894;2023-04-26T09:12:07;98848.13;;;16.74;59.55
67517;BME280;68821;59.134;37.894;2023-04-26T09:14:34;98844.38;;;16.84;59.34
67517;BME280;68821;59.134;37.894;2023-04-26T09:17:00;98836.38;;;16.90;59.34
67517;BME280;68821;59.134;37.894;2023-04-26T09:19:40;98832.44;;;17.03;59.30
67517;BME280;68821;59.134;37.894;2023-04-26T09:22:09;98829.25;;;17.20;58.61
67517;BME280;68821;59.134;37.894;2023-04-26T09:24:46;98829.25;;;17.20;58.77
67517;BME280;68821;59.134;37.894;2023-04-26T09:27:13;98828.47;;;17.18;58.31
67517;BME280;68821;59.134;37.894;2023-04-26T09:30:03;98823.84;;;17.01;58.18
67517;BME280;68821;59.134;37.894;2023-04-26T09:32:57;98820.69;;;16.93;58.40
67517;BME280;68821;59.134;37.894;2023-04-26T09:35:31;98821.59;;;16.92;58.39
67517;BME280;68821;59.134;37.894;2023-04-26T09:38:00;98821.59;;;16.92;58.31
67517;BME280;68821;59.134;37.894;2023-04-26T09:40:29;98812.84;;;16.95;58.50
67517;BME280;68821;59.134;37.894;2023-04-26T09:43:06;98811.13;;;16.94;58.13
67517;BME280;68821;59.134;37.894;2023-04-26T09:45:55;98816.66;;;16.84;58.42
67517;BME280;68821;59.134;37.894;2023-04-26T09:48:33;98812.69;;;16.73;58.65
67517;BME280;68821;59.134;37.894;2023-04-26T09:53:35;98809.91;;;16.52;58.70
67517;BME280;68821;59.134;37.894;2023-04-26T09:56:14;98811.06;;;16.43;59.06
67517;BME280;68821;59.134;37.894;2023-04-26T10:01:17;98815.25;;;16.47;59.76
67517;BME280;68821;59.134;37.894;2023-04-26T10:03:44;98807.09;;;16.58;59.53
67517;BME280;68821;59.134;37.894;2023-04-26T10:06:13;98801.75;;;16.63;59.22
67517;BME280;68821;59.134;37.894;2023-04-26T10:08:40;98801.66;;;16.66;59.28
67517;BME280;68821;59.134;37.894;2023-04-26T10:11:07;98805.06;;;16.68;59.09
67517;BME280;68821;59.134;37.894;2023-04-26T10:13:35;98804.25;;;16.66;59.04
67517;BME280;68821;59.134;37.894;2023-04-26T10:16:02;98807.03;;;16.61;59.26
67517;BME280;68821;59.134;37.894;2023-04-26T10:18:30;98802.47;;;16.68;59.47
67517;BME280;68821;59.134;37.894;2023-04-26T10:21:01;98801.91;;;16.85;59.77
67517;BME280;68821;59.134;37.894;2023-04-26T10:23:30;98805.72;;;17.00;59.00
67517;BME280;68821;59.134;37.894;2023-04-26T10:25:58;98808.81;;;17.11;58.92
67517;BME280;68821;59.134;37.894;2023-04-26T10:31:11;98804.09;;;17.46;58.20
67517;BME280;68821;59.134;37.894;2023-04-26T10:33:37;98809.69;;;17.59;58.26
67517;BME280;68821;59.134;37.894;2023-04-26T10:36:07;98803.28;;;17.67;57.93
67517;BME280;68821;59.134;37.894;2023-04-26T10:38:36;98806.03;;;17.64;58.02
67517;BME280;68821;59.134;37.894;2023-04-26T10:41:28;98809.47;;;17.65;57.68
67517;BME280;68821;59.134;37.894;2023-04-26T10:43:56;98802.91;;;17.78;57.58
67517;BME280;68821;59.134;37.894;2023-04-26T10:46:50;98803.91;;;17.98;57.73
67517;BME280;68821;59.134;37.894;2023-04-26T10:49:19;98796.53;;;18.31;57.24
67517;BME280;68821;59.134;37.894;2023-04-26T10:52:18;98798.66;;;18.86;56.99
67517;BME280;68821;59.134;37.894;2023-04-26T10:54:57;98798.72;;;20.01;55.58
67517;BME280;68821;59.134;37.894;2023-04-26T11:00:16;98797.31;;;22.16;51.36
67517;BME280;68821;59.134;37.894;2023-04-26T11:02:52;98790.03;;;22.37;49.52
67517;BME280;68821;59.134;37.894;2023-04-26T11:05:47;98795.28;;;22.21;50.18
67517;BME280;68821;59.134;37.894;2023-04-26T11:10:48;98795.09;;;22.40;49.04
67517;BME280;68821;59.134;37.894;2023-04-26T11:13:15;98793.69;;;22.35;49.46
67517;BME280;68821;59.134;37.894;2023-04-26T11:15:42;98797.91;;;22.21;49.11
67517;BME280;68821;59.134;37.894;2023-04-26T11:18:08;98801.47;;;21.88;49.47
67517;BME280;68821;59.134;37.894;2023-04-26T11:20:34;98786.91;;;21.18;50.42
67517;BME280;68821;59.134;37.894;2023-04-26T11:23:00;98806.41;;;20.60;51.34
67517;BME280;68821;59.134;37.894;2023-04-26T11:25:28;98795.16;;;20.04;51.76
67517;BME280;68821;59.134;37.894;2023-04-26T11:28:01;98790.19;;;19.60;52.65
67517;BME280;68821;59.134;37.894;2023-04-26T11:30:29;98799.69;;;19.42;53.19
67517;BME280;68821;59.134;37.894;2023-04-26T11:32:58;98797.34;;;19.36;53.31
67517;BME280;68821;59.134;37.894;2023-04-26T11:35:24;98802.44;;;19.39;53.16
67517;BME280;68821;59.134;37.894;2023-04-26T11:37:51;98793.63;;;19.41;52.98
67517;BME280;68821;59.134;37.894;2023-04-26T11:40:18;98795.34;;;19.42;52.56
67517;BME280;68821;59.134;37.894;2023-04-26T11:42:44;98792.56;;;19.45;52.69
67517;BME280;68821;59.134;37.894;2023-04-26T11:45:11;98799.22;;;19.53;52.96
67517;BME280;68821;59.134;37.894;2023-04-26T11:47:38;98804.44;;;19.53;52.65
67517;BME280;68821;59.134;37.894;2023-04-26T11:50:06;98798.44;;;19.50;52.60
67517;BME280;68821;59.134;37.894;2023-04-26T11:52:33;98799.13;;;19.54;52.72
67517;BME280;68821;59.134;37.894;2023-04-26T11:55:04;98797.00;;;19.43;52.76
67517;BME280;68821;59.134;37.894;2023-04-26T11:57:33;98794.06;;;19.32;52.51
67517;BME280;68821;59.134;37.894;2023-04-26T12:00:10;98794.06;;;19.32;53.33
67517;BME280;68821;59.134;37.894;2023-04-26T12:02:37;98782.59;;;19.36;52.88
67517;BME280;68821;59.134;37.894;2023-04-26T12:05:03;98774.78;;;19.36;53.03
67517;BME280;68821;59.134;37.894;2023-04-26T12:07:36;98787.81;;;19.55;52.72
67517;BME280;68821;59.134;37.894;2023-04-26T12:10:16;98790.34;;;19.57;52.31
67517;BME280;68821;59.134;37.894;2023-04-26T12:12:46;98792.88;;;19.58;52.63
67517;BME280;68821;59.134;37.894;2023-04-26T12:15:14;98783.38;;;19.57;52.52
67517;BME280;68821;59.134;37.894;2023-04-26T12:18:10;98778.88;;;19.61;52.92
67517;BME280;68821;59.134;37.894;2023-04-26T12:20:39;98782.81;;;19.69;52.57
67517;BME280;68821;59.134;37.894;2023-04-26T12:23:12;98789.78;;;19.69;52.41
67517;BME280;68821;59.134;37.894;2023-04-26T12:25:40;98786.53;;;19.64;52.66
67517;BME280;68821;59.134;37.894;2023-04-26T12:28:09;98766.66;;;19.42;52.41
67517;BME280;68821;59.134;37.894;2023-04-26T12:30:39;98787.03;;;19.34;52.91
67517;BME280;68821;59.134;37.894;2023-04-26T12:33:06;98796.69;;;19.12;53.15
67517;BME280;68821;59.134;37.894;2023-04-26T12:35:33;98785.63;;;18.86;53.76
67517;BME280;68821;59.134;37.894;2023-04-26T12:37:59;98786.25;;;18.70;54.30
67517;BME280;68821;59.134;37.894;2023-04-26T12:40:27;98781.56;;;18.58;54.74
67517;BME280;68821;59.134;37.894;2023-04-26T12:42:53;98777.75;;;18.45;55.16
67517;BME280;68821;59.134;37.894;2023-04-26T12:45:22;98780.50;;;18.42;55.41
67517;BME280;68821;59.134;37.894;2023-04-26T12:47:49;98778.53;;;18.47;55.38
67517;BME280;68821;59.134;37.894;2023-04-26T12:50:15;98781.94;;;18.49;55.42
67517;BME280;68821;59.134;37.894;2023-04-26T12:52:43;98787.44;;;18.41;55.52
67517;BME280;68821;59.134;37.894;2023-04-26T12:55:11;98785.72;;;18.20;55.71
67517;BME280;68821;59.134;37.894;2023-04-26T12:57:39;98789.00;;;18.03;56.13
67517;BME280;68821;59.134;37.894;2023-04-26T13:00:09;98785.22;;;17.88;56.82
67517;BME280;68821;59.134;37.894;2023-04-26T13:02:37;98784.59;;;17.81;56.83
67517;BME280;68821;59.134;37.894;2023-04-26T13:05:03;98778.88;;;17.72;57.15
67517;BME280;68821;59.134;37.894;2023-04-26T13:07:32;98780.22;;;17.60;57.48
67517;BME280;68821;59.134;37.894;2023-04-26T13:09:59;98787.22;;;17.58;57.52